sensor_id;sensor_type;location;lat;lon;timestamp;P1;durP1;ratioP1;P2;durP2;ratioP2
527;SDS011;250;47.712;7.508;2022-08-24T00:01:22;5.57;;;4.00;;
527;SDS011;250;47.712;7.508;2022-08-24T00:03:52;7.40;;;4.53;;
527;SDS011;250;47.712;7.508;2022-08-24T00:06:21;4.80;;;3.90;;
527;SDS011;250;47.712;7.508;2022-08-24T00:08:50;4.40;;;4.00;;
527;SDS011;250;47.712;7.508;2022-08-24T00:11:19;5.20;;;3.90;;
527;SDS011;250;47.712;7.508;2022-08-24T00:13:46;5.37;;;3.87;;
527;SDS011;250;47.712;7.508;2022-08-24T00:16:15;4.53;;;3.77;;
527;SDS011;250;47.712;7.508;2022-08-24T00:18:43;4.40;;;4.00;;
527;SDS011;250;47.712;7.508;2022-08-24T00:21:11;4.60;;;4.10;;
527;SDS011;250;47.712;7.508;2022-08-24T00:23:38;5.50;;;3.90;;
527;SDS011;250;47.712;7.508;2022-08-24T00:26:05;8.63;;;4.27;;
527;SDS011;250;47.712;7.508;2022-08-24T00:28:33;5.00;;;4.57;;
527;SDS011;250;47.712;7.508;2022-08-24T00:31:00;5.10;;;4.30;;
527;SDS011;250;47.712;7.508;2022-08-24T00:33:30;6.13;;;4.10;;
527;SDS011;250;47.712;7.508;2022-08-24T00:35:57;5.40;;;4.90;;
527;SDS011;250;47.712;7.508;2022-08-24T00:38:24;5.43;;;4.80;;
527;SDS011;250;47.712;7.508;2022-08-24T00:40:51;5.07;;;4.57;;
527;SDS011;250;47.712;7.508;2022-08-24T00:43:20;4.47;;;4.07;;
527;SDS011;250;47.712;7.508;2022-08-24T00:45:53;4.60;;;4.20;;
527;SDS011;250;47.712;7.508;2022-08-24T00:48:29;5.10;;;4.60;;
527;SDS011;250;47.712;7.508;2022-08-24T00:51:02;5.27;;;4.77;;
527;SDS011;250;47.712;7.508;2022-08-24T00:53:32;5.90;;;4.30;;
527;SDS011;250;47.712;7.508;2022-08-24T00:56:03;10.87;;;4.77;;
527;SDS011;250;47.712;7.508;2022-08-24T00:58:35;5.97;;;4.30;;
527;SDS011;250;47.712;7.508;2022-08-24T01:01:07;4.60;;;4.10;;
527;SDS011;250;47.712;7.508;2022-08-24T01:03:39;4.87;;;4.47;;
527;SDS011;250;47.712;7.508;2022-08-24T01:06:07;6.00;;;4.63;;
527;SDS011;250;47.712;7.508;2022-08-24T01:08:36;5.40;;;4.80;;
527;SDS011;250;47.712;7.508;2022-08-24T01:11:06;5.03;;;4.37;;
527;SDS011;250;47.712;7.508;2022-08-24T01:13:37;4.30;;;3.90;;
527;SDS011;250;47.712;7.508;2022-08-24T01:16:06;4.83;;;4.33;;
527;SDS011;250;47.712;7.508;2022-08-24T01:18:33;4.93;;;4.50;;
527;SDS011;250;47.712;7.508;2022-08-24T01:21:24;5.87;;;4.30;;
527;SDS011;250;47.712;7.508;2022-08-24T01:23:57;6.20;;;4.17;;
527;SDS011;250;47.712;7.508;2022-08-24T01:26:27;4.70;;;4.20;;
527;SDS011;250;47.712;7.508;2022-08-24T01:28:58;5.10;;;4.47;;
527;SDS011;250;47.712;7.508;2022-08-24T01:31:29;4.73;;;4.33;;
527;SDS011;250;47.712;7.508;2022-08-24T01:33:56;5.20;;;4.70;;
527;SDS011;250;47.712;7.508;2022-08-24T01:36:25;7.50;;;4.40;;
527;SDS011;250;47.712;7.508;2022-08-24T01:38:58;7.43;;;4.83;;
527;SDS011;250;47.712;7.508;2022-08-24T01:41:29;5.73;;;4.70;;
527;SDS011;250;47.712;7.508;2022-08-24T01:43:56;6.70;;;5.00;;
527;SDS011;250;47.712;7.508;2022-08-24T01:46:24;6.00;;;4.50;;
527;SDS011;250;47.712;7.508;2022-08-24T01:48:51;4.50;;;4.10;;
527;SDS011;250;47.712;7.508;2022-08-24T01:51:19;5.10;;;4.50;;
527;SDS011;250;47.712;7.508;2022-08-24T01:53:46;5.20;;;4.80;;
527;SDS011;250;47.712;7.508;2022-08-24T01:56:15;6.10;;;4.47;;
527;SDS011;250;47.712;7.508;2022-08-24T01:58:42;5.97;;;4.77;;
527;SDS011;250;47.712;7.508;2022-08-24T02:01:10;4.80;;;4.30;;
527;SDS011;250;47.712;7.508;2022-08-24T02:03:38;5.93;;;4.47;;
527;SDS011;250;47.712;7.508;2022-08-24T02:06:05;4.60;;;4.20;;
527;SDS011;250;47.712;7.508;2022-08-24T02:08:33;4.17;;;3.50;;
527;SDS011;250;47.712;7.508;2022-08-24T02:11:00;5.07;;;4.03;;
527;SDS011;250;47.712;7.508;2022-08-24T02:13:29;5.17;;;4.60;;
527;SDS011;250;47.712;7.508;2022-08-24T02:15:57;5.80;;;4.17;;
527;SDS011;250;47.712;7.508;2022-08-24T02:18:24;6.53;;;4.70;;
527;SDS011;250;47.712;7.508;2022-08-24T02:20:52;5.00;;;4.17;;
527;SDS011;250;47.712;7.508;2022-08-24T02:23:19;4.80;;;4.30;;
527;SDS011;250;47.712;7.508;2022-08-24T02:25:46;4.60;;;4.03;;
527;SDS011;250;47.712;7.508;2022-08-24T02:28:13;5.63;;;4.37;;
527;SDS011;250;47.712;7.508;2022-08-24T02:30:42;5.17;;;4.77;;
527;SDS011;250;47.712;7.508;2022-08-24T02:33:09;8.60;;;4.70;;
527;SDS011;250;47.712;7.508;2022-08-24T02:35:37;4.63;;;4.23;;
527;SDS011;250;47.712;7.508;2022-08-24T02:38:05;8.90;;;5.50;;
527;SDS011;250;47.712;7.508;2022-08-24T02:40:32;4.23;;;3.83;;
527;SDS011;250;47.712;7.508;2022-08-24T02:42:59;4.90;;;4.23;;
527;SDS011;250;47.712;7.508;2022-08-24T02:45:26;4.90;;;4.37;;
527;SDS011;250;47.712;7.508;2022-08-24T02:47:55;5.03;;;4.30;;
527;SDS011;250;47.712;7.508;2022-08-24T02:50:23;5.37;;;4.17;;
527;SDS011;250;47.712;7.508;2022-08-24T02:52:50;6.53;;;3.97;;
527;SDS011;250;47.712;7.508;2022-08-24T02:55:18;4.47;;;3.90;;
527;SDS011;250;47.712;7.508;2022-08-24T02:57:45;5.87;;;4.50;;
527;SDS011;250;47.712;7.508;2022-08-24T03:00:15;4.93;;;4.43;;
527;SDS011;250;47.712;7.508;2022-08-24T03:02:43;5.63;;;4.23;;
527;SDS011;250;47.712;7.508;2022-08-24T03:05:12;5.40;;;4.73;;
527;SDS011;250;47.712;7.508;2022-08-24T03:07:39;7.23;;;4.97;;
527;SDS011;250;47.712;7.508;2022-08-24T03:10:07;6.60;;;4.80;;
527;SDS011;250;47.712;7.508;2022-08-24T03:12:34;5.53;;;5.00;;
527;SDS011;250;47.712;7.508;2022-08-24T03:15:02;7.33;;;4.40;;
527;SDS011;250;47.712;7.508;2022-08-24T03:17:30;5.70;;;5.20;;
527;SDS011;250;47.712;7.508;2022-08-24T03:19:57;5.97;;;4.63;;
527;SDS011;250;47.712;7.508;2022-08-24T03:22:27;4.93;;;4.43;;
527;SDS011;250;47.712;7.508;2022-08-24T03:24:54;5.70;;;5.13;;
527;SDS011;250;47.712;7.508;2022-08-24T03:27:21;7.07;;;5.30;;
527;SDS011;250;47.712;7.508;2022-08-24T03:29:48;5.67;;;4.70;;
527;SDS011;250;47.712;7.508;2022-08-24T03:32:15;5.60;;;5.10;;
527;SDS011;250;47.712;7.508;2022-08-24T03:34:42;7.50;;;5.00;;
527;SDS011;250;47.712;7.508;2022-08-24T03:37:09;5.50;;;5.00;;
527;SDS011;250;47.712;7.508;2022-08-24T03:39:38;6.37;;;5.53;;
527;SDS011;250;47.712;7.508;2022-08-24T03:42:05;5.93;;;5.43;;
527;SDS011;250;47.712;7.508;2022-08-24T03:44:32;8.27;;;5.03;;
527;SDS011;250;47.712;7.508;2022-08-24T03:47:02;5.13;;;4.70;;
527;SDS011;250;47.712;7.508;2022-08-24T03:49:29;6.70;;;5.23;;
527;SDS011;250;47.712;7.508;2022-08-24T03:51:56;6.50;;;4.70;;
527;SDS011;250;47.712;7.508;2022-08-24T03:54:24;6.90;;;6.07;;
527;SDS011;250;47.712;7.508;2022-08-24T03:56:52;4.40;;;4.00;;
527;SDS011;250;47.712;7.508;2022-08-24T03:59:19;7.10;;;6.27;;
527;SDS011;250;47.712;7.508;2022-08-24T04:01:46;5.07;;;4.63;;
527;SDS011;250;47.712;7.508;2022-08-24T04:04:13;6.90;;;5.07;;
527;SDS011;250;47.712;7.508;2022-08-24T04:06:40;6.00;;;4.67;;
527;SDS011;250;47.712;7.508;2022-08-24T04:09:10;4.93;;;4.47;;
527;SDS011;250;47.712;7.508;2022-08-24T04:11:37;8.47;;;5.63;;
527;SDS011;250;47.712;7.508;2022-08-24T04:14:06;5.53;;;5.00;;
527;SDS011;250;47.712;7.508;2022-08-24T04:16:33;5.23;;;4.73;;
527;SDS011;250;47.712;7.508;2022-08-24T04:19:00;6.33;;;5.70;;
527;SDS011;250;47.712;7.508;2022-08-24T04:21:28;5.33;;;4.83;;
527;SDS011;250;47.712;7.508;2022-08-24T04:23:57;5.27;;;4.77;;
527;SDS011;250;47.712;7.508;2022-08-24T04:26:26;9.57;;;5.93;;
527;SDS011;250;47.712;7.508;2022-08-24T04:28:54;5.93;;;5.33;;
527;SDS011;250;47.712;7.508;2022-08-24T04:31:23;5.63;;;4.87;;
527;SDS011;250;47.712;7.508;2022-08-24T04:33:50;9.07;;;5.60;;
527;SDS011;250;47.712;7.508;2022-08-24T04:36:19;9.73;;;5.53;;
527;SDS011;250;47.712;7.508;2022-08-24T04:38:47;5.67;;;5.17;;
527;SDS011;250;47.712;7.508;2022-08-24T04:41:15;4.90;;;4.40;;
527;SDS011;250;47.712;7.508;2022-08-24T04:43:45;5.27;;;4.80;;
527;SDS011;250;47.712;7.508;2022-08-24T04:46:14;5.47;;;4.97;;
527;SDS011;250;47.712;7.508;2022-08-24T04:48:44;5.20;;;4.70;;
527;SDS011;250;47.712;7.508;2022-08-24T04:51:14;5.37;;;4.77;;
527;SDS011;250;47.712;7.508;2022-08-24T04:53:43;5.40;;;4.70;;
527;SDS011;250;47.712;7.508;2022-08-24T04:56:11;7.63;;;4.63;;
527;SDS011;250;47.712;7.508;2022-08-24T04:58:40;6.03;;;5.43;;
527;SDS011;250;47.712;7.508;2022-08-24T05:01:07;7.37;;;4.80;;
527;SDS011;250;47.712;7.508;2022-08-24T05:03:35;5.40;;;4.90;;
527;SDS011;250;47.712;7.508;2022-08-24T05:06:04;6.17;;;4.97;;
527;SDS011;250;47.712;7.508;2022-08-24T05:08:32;4.90;;;4.50;;
527;SDS011;250;47.712;7.508;2022-08-24T05:10:59;5.93;;;5.37;;
527;SDS011;250;47.712;7.508;2022-08-24T05:13:30;5.17;;;4.67;;
527;SDS011;250;47.712;7.508;2022-08-24T05:15:57;6.50;;;5.70;;
527;SDS011;250;47.712;7.508;2022-08-24T05:18:25;6.63;;;6.00;;
527;SDS011;250;47.712;7.508;2022-08-24T05:20:54;6.30;;;5.70;;
527;SDS011;250;47.712;7.508;2022-08-24T05:23:23;6.00;;;5.40;;
527;SDS011;250;47.712;7.508;2022-08-24T05:25:50;5.90;;;5.40;;
527;SDS011;250;47.712;7.508;2022-08-24T05:28:17;7.10;;;5.73;;
527;SDS011;250;47.712;7.508;2022-08-24T05:30:45;5.77;;;5.27;;
527;SDS011;250;47.712;7.508;2022-08-24T05:33:12;6.27;;;5.73;;
527;SDS011;250;47.712;7.508;2022-08-24T05:35:39;5.80;;;5.00;;
527;SDS011;250;47.712;7.508;2022-08-24T05:38:06;6.17;;;5.30;;
527;SDS011;250;47.712;7.508;2022-08-24T05:40:35;5.20;;;4.73;;
527;SDS011;250;47.712;7.508;2022-08-24T05:43:02;5.20;;;4.70;;
527;SDS011;250;47.712;7.508;2022-08-24T05:45:30;6.00;;;5.37;;
527;SDS011;250;47.712;7.508;2022-08-24T05:47:57;5.37;;;4.83;;
527;SDS011;250;47.712;7.508;2022-08-24T05:50:24;5.57;;;5.00;;
527;SDS011;250;47.712;7.508;2022-08-24T05:52:51;5.50;;;5.00;;
527;SDS011;250;47.712;7.508;2022-08-24T05:55:18;5.60;;;5.10;;
527;SDS011;250;47.712;7.508;2022-08-24T05:57:46;5.53;;;5.00;;
527;SDS011;250;47.712;7.508;2022-08-24T06:00:14;5.83;;;5.30;;
527;SDS011;250;47.712;7.508;2022-08-24T06:02:42;5.40;;;4.90;;
527;SDS011;250;47.712;7.508;2022-08-24T06:05:09;6.00;;;5.50;;
527;SDS011;250;47.712;7.508;2022-08-24T06:07:36;7.83;;;4.57;;
527;SDS011;250;47.712;7.508;2022-08-24T06:10:03;6.10;;;5.60;;
527;SDS011;250;47.712;7.508;2022-08-24T06:12:31;4.87;;;4.30;;
527;SDS011;250;47.712;7.508;2022-08-24T06:14:59;5.73;;;5.23;;
527;SDS011;250;47.712;7.508;2022-08-24T06:17:26;5.77;;;5.27;;
527;SDS011;250;47.712;7.508;2022-08-24T06:19:53;5.30;;;4.80;;
527;SDS011;250;47.712;7.508;2022-08-24T06:22:20;5.40;;;4.90;;
527;SDS011;250;47.712;7.508;2022-08-24T06:24:47;6.33;;;5.27;;
527;SDS011;250;47.712;7.508;2022-08-24T06:27:31;5.70;;;5.20;;
527;SDS011;250;47.712;7.508;2022-08-24T06:30:02;6.50;;;5.03;;
527;SDS011;250;47.712;7.508;2022-08-24T06:32:33;5.30;;;4.80;;
527;SDS011;250;47.712;7.508;2022-08-24T06:35:00;6.70;;;4.70;;
527;SDS011;250;47.712;7.508;2022-08-24T06:37:28;6.50;;;5.80;;
527;SDS011;250;47.712;7.508;2022-08-24T06:39:55;10.20;;;4.97;;
527;SDS011;250;47.712;7.508;2022-08-24T06:42:23;5.53;;;4.90;;
527;SDS011;250;47.712;7.508;2022-08-24T06:44:50;6.93;;;5.23;;
527;SDS011;250;47.712;7.508;2022-08-24T06:47:19;4.80;;;4.40;;
527;SDS011;250;47.712;7.508;2022-08-24T06:49:46;5.40;;;4.90;;
527;SDS011;250;47.712;7.508;2022-08-24T06:52:13;5.30;;;4.80;;
527;SDS011;250;47.712;7.508;2022-08-24T06:54:40;7.50;;;4.40;;
527;SDS011;250;47.712;7.508;2022-08-24T06:57:07;5.83;;;5.30;;
527;SDS011;250;47.712;7.508;2022-08-24T06:59:35;8.77;;;5.10;;
527;SDS011;250;47.712;7.508;2022-08-24T07:02:02;8.03;;;5.40;;
527;SDS011;250;47.712;7.508;2022-08-24T07:04:30;5.03;;;4.53;;
527;SDS011;250;47.712;7.508;2022-08-24T07:06:57;4.80;;;4.30;;
527;SDS011;250;47.712;7.508;2022-08-24T07:09:24;5.70;;;5.10;;
527;SDS011;250;47.712;7.508;2022-08-24T07:11:51;10.07;;;5.50;;
527;SDS011;250;47.712;7.508;2022-08-24T07:14:19;6.70;;;4.70;;
527;SDS011;250;47.712;7.508;2022-08-24T07:16:46;5.00;;;4.50;;
527;SDS011;250;47.712;7.508;2022-08-24T07:19:13;5.07;;;4.67;;
527;SDS011;250;47.712;7.508;2022-08-24T07:21:42;5.90;;;4.87;;
527;SDS011;250;47.712;7.508;2022-08-24T07:24:09;5.40;;;4.20;;
527;SDS011;250;47.712;7.508;2022-08-24T07:26:36;11.33;;;4.73;;
527;SDS011;250;47.712;7.508;2022-08-24T07:29:04;4.73;;;3.80;;
527;SDS011;250;47.712;7.508;2022-08-24T07:31:35;6.83;;;4.40;;
527;SDS011;250;47.712;7.508;2022-08-24T07:34:04;5.37;;;4.63;;
527;SDS011;250;47.712;7.508;2022-08-24T07:36:33;4.90;;;4.20;;
527;SDS011;250;47.712;7.508;2022-08-24T07:39:03;5.47;;;4.10;;
527;SDS011;250;47.712;7.508;2022-08-24T07:41:30;4.30;;;3.90;;
527;SDS011;250;47.712;7.508;2022-08-24T07:44:02;6.23;;;4.40;;
527;SDS011;250;47.712;7.508;2022-08-24T07:46:29;6.10;;;4.50;;
527;SDS011;250;47.712;7.508;2022-08-24T07:48:56;4.90;;;4.43;;
527;SDS011;250;47.712;7.508;2022-08-24T07:51:23;5.13;;;4.63;;
527;SDS011;250;47.712;7.508;2022-08-24T07:53:51;6.67;;;6.03;;
527;SDS011;250;47.712;7.508;2022-08-24T07:56:19;7.67;;;6.97;;
527;SDS011;250;47.712;7.508;2022-08-24T07:58:47;7.80;;;7.10;;
527;SDS011;250;47.712;7.508;2022-08-24T08:01:14;8.37;;;7.50;;
527;SDS011;250;47.712;7.508;2022-08-24T08:03:42;7.57;;;6.83;;
527;SDS011;250;47.712;7.508;2022-08-24T08:06:09;7.60;;;6.80;;
527;SDS011;250;47.712;7.508;2022-08-24T08:08:37;9.20;;;7.23;;
527;SDS011;250;47.712;7.508;2022-08-24T08:11:06;7.03;;;6.23;;
527;SDS011;250;47.712;7.508;2022-08-24T08:13:35;8.50;;;7.70;;
527;SDS011;250;47.712;7.508;2022-08-24T08:16:03;10.43;;;7.90;;
527;SDS011;250;47.712;7.508;2022-08-24T08:18:31;9.27;;;7.70;;
527;SDS011;250;47.712;7.508;2022-08-24T08:20:58;8.67;;;7.80;;
527;SDS011;250;47.712;7.508;2022-08-24T08:23:27;8.80;;;7.90;;
527;SDS011;250;47.712;7.508;2022-08-24T08:26:13;10.47;;;9.53;;
527;SDS011;250;47.712;7.508;2022-08-24T08:28:43;9.13;;;8.33;;
527;SDS011;250;47.712;7.508;2022-08-24T08:31:10;8.30;;;7.50;;
527;SDS011;250;47.712;7.508;2022-08-24T08:33:37;8.80;;;7.97;;
527;SDS011;250;47.712;7.508;2022-08-24T08:36:05;9.50;;;8.60;;
527;SDS011;250;47.712;7.508;2022-08-24T08:38:35;10.70;;;9.60;;
527;SDS011;250;47.712;7.508;2022-08-24T08:41:07;8.30;;;7.50;;
527;SDS011;250;47.712;7.508;2022-08-24T08:44:02;9.37;;;7.40;;
527;SDS011;250;47.712;7.508;2022-08-24T08:46:36;7.07;;;6.47;;
527;SDS011;250;47.712;7.508;2022-08-24T08:52:16;10.47;;;7.83;;
527;SDS011;250;47.712;7.508;2022-08-24T08:54:59;8.73;;;7.83;;
527;SDS011;250;47.712;7.508;2022-08-24T09:00:21;8.40;;;7.63;;
527;SDS011;250;47.712;7.508;2022-08-24T09:09:01;7.90;;;7.20;;
527;SDS011;250;47.712;7.508;2022-08-24T09:11:58;9.20;;;7.90;;
527;SDS011;250;47.712;7.508;2022-08-24T09:17:35;12.03;;;8.77;;
527;SDS011;250;47.712;7.508;2022-08-24T09:20:15;9.00;;;8.10;;
527;SDS011;250;47.712;7.508;2022-08-24T09:22:55;9.30;;;8.50;;
527;SDS011;250;47.712;7.508;2022-08-24T09:25:31;8.30;;;7.60;;
527;SDS011;250;47.712;7.508;2022-08-24T09:28:11;10.77;;;9.13;;
527;SDS011;250;47.712;7.508;2022-08-24T09:33:41;9.50;;;8.60;;
527;SDS011;250;47.712;7.508;2022-08-24T09:36:12;12.10;;;8.53;;
527;SDS011;250;47.712;7.508;2022-08-24T09:38:48;10.80;;;9.03;;
527;SDS011;250;47.712;7.508;2022-08-24T09:41:37;9.20;;;7.70;;
527;SDS011;250;47.712;7.508;2022-08-24T09:44:25;8.20;;;7.03;;
527;SDS011;250;47.712;7.508;2022-08-24T09:47:28;8.03;;;7.30;;
527;SDS011;250;47.712;7.508;2022-08-24T09:50:27;7.67;;;7.07;;
527;SDS011;250;47.712;7.508;2022-08-24T09:53:22;7.50;;;6.27;;
527;SDS011;250;47.712;7.508;2022-08-24T09:56:13;12.30;;;9.83;;
527;SDS011;250;47.712;7.508;2022-08-24T09:58:57;8.33;;;5.53;;
527;SDS011;250;47.712;7.508;2022-08-24T10:01:35;7.97;;;5.90;;
527;SDS011;250;47.712;7.508;2022-08-24T10:04:14;5.17;;;4.67;;
527;SDS011;250;47.712;7.508;2022-08-24T10:06:55;5.90;;;4.97;;
527;SDS011;250;47.712;7.508;2022-08-24T10:09:41;9.60;;;5.33;;
527;SDS011;250;47.712;7.508;2022-08-24T10:12:28;5.00;;;4.57;;
527;SDS011;250;47.712;7.508;2022-08-24T10:15:07;5.30;;;4.80;;
527;SDS011;250;47.712;7.508;2022-08-24T10:17:39;4.33;;;3.83;;
527;SDS011;250;47.712;7.508;2022-08-24T10:20:18;6.80;;;4.50;;
527;SDS011;250;47.712;7.508;2022-08-24T10:22:57;11.50;;;4.70;;
527;SDS011;250;47.712;7.508;2022-08-24T10:25:38;6.33;;;5.63;;
527;SDS011;250;47.712;7.508;2022-08-24T10:28:21;8.23;;;5.57;;
527;SDS011;250;47.712;7.508;2022-08-24T10:31:04;5.07;;;3.97;;
527;SDS011;250;47.712;7.508;2022-08-24T10:33:34;4.77;;;4.10;;
527;SDS011;250;47.712;7.508;2022-08-24T10:36:19;5.43;;;4.33;;
527;SDS011;250;47.712;7.508;2022-08-24T10:39:04;5.20;;;4.70;;
527;SDS011;250;47.712;7.508;2022-08-24T10:42:19;4.93;;;4.23;;
527;SDS011;250;47.712;7.508;2022-08-24T10:51:56;5.30;;;4.13;;
527;SDS011;250;47.712;7.508;2022-08-24T10:54:42;4.37;;;3.83;;
527;SDS011;250;47.712;7.508;2022-08-24T10:57:14;5.97;;;4.23;;
527;SDS011;250;47.712;7.508;2022-08-24T10:59:49;3.07;;;2.60;;
527;SDS011;250;47.712;7.508;2022-08-24T11:02:29;4.87;;;3.17;;
527;SDS011;250;47.712;7.508;2022-08-24T11:04:59;5.23;;;4.27;;
527;SDS011;250;47.712;7.508;2022-08-24T11:07:30;4.97;;;3.40;;
527;SDS011;250;47.712;7.508;2022-08-24T11:09:59;5.47;;;4.43;;
527;SDS011;250;47.712;7.508;2022-08-24T11:12:31;11.70;;;4.57;;
527;SDS011;250;47.712;7.508;2022-08-24T11:15:01;4.63;;;4.10;;
527;SDS011;250;47.712;7.508;2022-08-24T11:17:31;4.23;;;3.83;;
527;SDS011;250;47.712;7.508;2022-08-24T11:19:59;4.53;;;3.83;;
527;SDS011;250;47.712;7.508;2022-08-24T11:22:28;5.10;;;3.63;;
527;SDS011;250;47.712;7.508;2022-08-24T11:25:03;3.77;;;3.27;;
527;SDS011;250;47.712;7.508;2022-08-24T11:27:35;4.47;;;4.00;;
527;SDS011;250;47.712;7.508;2022-08-24T11:30:12;5.30;;;4.80;;
527;SDS011;250;47.712;7.508;2022-08-24T11:32:50;4.77;;;4.37;;
527;SDS011;250;47.712;7.508;2022-08-24T11:35:21;4.17;;;3.73;;
527;SDS011;250;47.712;7.508;2022-08-24T11:37:51;3.43;;;3.13;;
527;SDS011;250;47.712;7.508;2022-08-24T11:40:24;2.73;;;2.53;;
527;SDS011;250;47.712;7.508;2022-08-24T11:43:01;3.97;;;3.57;;
527;SDS011;250;47.712;7.508;2022-08-24T11:45:36;5.40;;;3.20;;
527;SDS011;250;47.712;7.508;2022-08-24T11:48:13;5.40;;;3.53;;
527;SDS011;250;47.712;7.508;2022-08-24T11:50:50;3.33;;;3.03;;
527;SDS011;250;47.712;7.508;2022-08-24T11:53:24;4.80;;;3.00;;
527;SDS011;250;47.712;7.508;2022-08-24T11:56:03;6.67;;;3.67;;
527;SDS011;250;47.712;7.508;2022-08-24T11:58:40;4.93;;;3.80;;
527;SDS011;250;47.712;7.508;2022-08-24T12:01:16;5.17;;;3.47;;
527;SDS011;250;47.712;7.508;2022-08-24T12:03:50;3.40;;;2.67;;
527;SDS011;250;47.712;7.508;2022-08-24T12:06:52;3.17;;;2.87;;
527;SDS011;250;47.712;7.508;2022-08-24T12:09:27;3.43;;;3.10;;
527;SDS011;250;47.712;7.508;2022-08-24T12:12:07;3.47;;;3.03;;
527;SDS011;250;47.712;7.508;2022-08-24T12:14:43;3.63;;;2.60;;
527;SDS011;250;47.712;7.508;2022-08-24T12:17:15;4.37;;;2.90;;
527;SDS011;250;47.712;7.508;2022-08-24T12:19:48;3.77;;;3.20;;
527;SDS011;250;47.712;7.508;2022-08-24T12:22:18;3.13;;;2.80;;
527;SDS011;250;47.712;7.508;2022-08-24T12:24:47;3.70;;;3.07;;
527;SDS011;250;47.712;7.508;2022-08-24T12:27:18;4.80;;;3.00;;
527;SDS011;250;47.712;7.508;2022-08-24T12:29:49;4.47;;;3.33;;
527;SDS011;250;47.712;7.508;2022-08-24T12:32:23;6.13;;;3.27;;
527;SDS011;250;47.712;7.508;2022-08-24T12:34:54;4.43;;;3.70;;
527;SDS011;250;47.712;7.508;2022-08-24T12:37:25;4.20;;;3.00;;
527;SDS011;250;47.712;7.508;2022-08-24T12:39:57;3.23;;;2.93;;
527;SDS011;250;47.712;7.508;2022-08-24T12:42:35;3.57;;;3.00;;
527;SDS011;250;47.712;7.508;2022-08-24T12:45:08;5.07;;;3.47;;
527;SDS011;250;47.712;7.508;2022-08-24T12:47:39;3.90;;;2.97;;
527;SDS011;250;47.712;7.508;2022-08-24T12:50:13;5.03;;;2.63;;
527;SDS011;250;47.712;7.508;2022-08-24T12:53:05;3.80;;;3.00;;
527;SDS011;250;47.712;7.508;2022-08-24T12:56:16;4.57;;;2.90;;
527;SDS011;250;47.712;7.508;2022-08-24T12:58:57;3.83;;;3.13;;
527;SDS011;250;47.712;7.508;2022-08-24T13:01:29;3.80;;;3.40;;
527;SDS011;250;47.712;7.508;2022-08-24T13:04:04;3.37;;;2.80;;
527;SDS011;250;47.712;7.508;2022-08-24T13:06:39;7.07;;;3.50;;
527;SDS011;250;47.712;7.508;2022-08-24T13:09:11;4.47;;;3.20;;
527;SDS011;250;47.712;7.508;2022-08-24T13:11:42;3.63;;;3.03;;
527;SDS011;250;47.712;7.508;2022-08-24T13:14:18;8.20;;;3.07;;
527;SDS011;250;47.712;7.508;2022-08-24T13:16:49;5.60;;;2.77;;
527;SDS011;250;47.712;7.508;2022-08-24T13:19:34;4.17;;;2.63;;
527;SDS011;250;47.712;7.508;2022-08-24T13:25:22;3.63;;;2.13;;
527;SDS011;250;47.712;7.508;2022-08-24T13:31:17;2.70;;;2.47;;
527;SDS011;250;47.712;7.508;2022-08-24T13:33:50;3.00;;;2.30;;
527;SDS011;250;47.712;7.508;2022-08-24T13:45:33;5.13;;;2.53;;
527;SDS011;250;47.712;7.508;2022-08-24T13:48:12;3.30;;;2.93;;
527;SDS011;250;47.712;7.508;2022-08-24T13:50:50;3.80;;;3.03;;
527;SDS011;250;47.712;7.508;2022-08-24T13:53:43;3.50;;;2.63;;
527;SDS011;250;47.712;7.508;2022-08-24T13:56:23;4.03;;;2.50;;
527;SDS011;250;47.712;7.508;2022-08-24T13:59:00;4.57;;;2.50;;
527;SDS011;250;47.712;7.508;2022-08-24T14:01:33;4.00;;;2.80;;
527;SDS011;250;47.712;7.508;2022-08-24T14:04:08;2.67;;;2.40;;
527;SDS011;250;47.712;7.508;2022-08-24T14:06:55;2.90;;;2.40;;
527;SDS011;250;47.712;7.508;2022-08-24T14:09:34;2.83;;;2.03;;
527;SDS011;250;47.712;7.508;2022-08-24T14:12:11;3.00;;;2.30;;
527;SDS011;250;47.712;7.508;2022-08-24T14:15:09;2.83;;;2.07;;
527;SDS011;250;47.712;7.508;2022-08-24T14:17:45;3.33;;;2.60;;
527;SDS011;250;47.712;7.508;2022-08-24T14:20:27;3.80;;;2.37;;
527;SDS011;250;47.712;7.508;2022-08-24T14:23:08;3.20;;;2.30;;
527;SDS011;250;47.712;7.508;2022-08-24T14:25:49;4.33;;;2.90;;
527;SDS011;250;47.712;7.508;2022-08-24T14:28:37;2.70;;;2.50;;
527;SDS011;250;47.712;7.508;2022-08-24T14:31:14;2.97;;;2.40;;
527;SDS011;250;47.712;7.508;2022-08-24T14:33:50;4.60;;;2.53;;
527;SDS011;250;47.712;7.508;2022-08-24T14:36:43;3.33;;;2.40;;
527;SDS011;250;47.712;7.508;2022-08-24T14:39:20;3.27;;;2.50;;
527;SDS011;250;47.712;7.508;2022-08-24T14:42:01;3.50;;;2.70;;
527;SDS011;250;47.712;7.508;2022-08-24T14:44:43;2.57;;;2.17;;
527;SDS011;250;47.712;7.508;2022-08-24T14:47:20;2.70;;;2.33;;
527;SDS011;250;47.712;7.508;2022-08-24T14:49:57;2.27;;;2.07;;
527;SDS011;250;47.712;7.508;2022-08-24T14:52:44;3.23;;;1.80;;
527;SDS011;250;47.712;7.508;2022-08-24T14:55:31;3.57;;;2.30;;
527;SDS011;250;47.712;7.508;2022-08-24T14:58:09;4.07;;;1.70;;
527;SDS011;250;47.712;7.508;2022-08-24T15:00:51;2.50;;;1.90;;
527;SDS011;250;47.712;7.508;2022-08-24T15:06:39;2.80;;;1.90;;
527;SDS011;250;47.712;7.508;2022-08-24T15:09:19;2.10;;;1.90;;
527;SDS011;250;47.712;7.508;2022-08-24T15:11:47;2.40;;;2.07;;
527;SDS011;250;47.712;7.508;2022-08-24T15:14:20;2.80;;;2.33;;
527;SDS011;250;47.712;7.508;2022-08-24T15:16:52;4.57;;;2.00;;
527;SDS011;250;47.712;7.508;2022-08-24T15:19:30;3.00;;;2.17;;
527;SDS011;250;47.712;7.508;2022-08-24T15:22:06;2.40;;;1.93;;
527;SDS011;250;47.712;7.508;2022-08-24T15:24:41;2.10;;;1.90;;
527;SDS011;250;47.712;7.508;2022-08-24T15:27:15;6.60;;;2.07;;
527;SDS011;250;47.712;7.508;2022-08-24T15:29:50;3.60;;;2.03;;
527;SDS011;250;47.712;7.508;2022-08-24T15:32:19;11.57;;;2.20;;
527;SDS011;250;47.712;7.508;2022-08-24T15:34:48;3.10;;;1.73;;
527;SDS011;250;47.712;7.508;2022-08-24T15:37:24;2.50;;;2.10;;
527;SDS011;250;47.712;7.508;2022-08-24T15:39:55;2.63;;;1.87;;
527;SDS011;250;47.712;7.508;2022-08-24T15:42:23;3.53;;;2.33;;
527;SDS011;250;47.712;7.508;2022-08-24T15:44:52;4.43;;;2.00;;
527;SDS011;250;47.712;7.508;2022-08-24T15:47:24;2.53;;;1.90;;
527;SDS011;250;47.712;7.508;2022-08-24T15:49:54;7.20;;;2.00;;
527;SDS011;250;47.712;7.508;2022-08-24T15:52:40;2.40;;;1.87;;
527;SDS011;250;47.712;7.508;2022-08-24T15:55:15;2.40;;;2.10;;
527;SDS011;250;47.712;7.508;2022-08-24T16:01:01;1.90;;;1.57;;
527;SDS011;250;47.712;7.508;2022-08-24T16:04:03;3.03;;;2.20;;
527;SDS011;250;47.712;7.508;2022-08-24T16:06:34;3.07;;;1.70;;
527;SDS011;250;47.712;7.508;2022-08-24T16:09:04;2.13;;;1.70;;
527;SDS011;250;47.712;7.508;2022-08-24T16:11:37;3.20;;;1.77;;
527;SDS011;250;47.712;7.508;2022-08-24T16:14:10;2.33;;;1.60;;
527;SDS011;250;47.712;7.508;2022-08-24T16:16:41;2.33;;;2.10;;
527;SDS011;250;47.712;7.508;2022-08-24T16:19:17;4.73;;;2.00;;
527;SDS011;250;47.712;7.508;2022-08-24T16:21:50;3.00;;;1.67;;
527;SDS011;250;47.712;7.508;2022-08-24T16:24:25;2.37;;;1.60;;
527;SDS011;250;47.712;7.508;2022-08-24T16:26:57;2.83;;;1.80;;
527;SDS011;250;47.712;7.508;2022-08-24T16:29:49;2.23;;;1.63;;
527;SDS011;250;47.712;7.508;2022-08-24T16:32:20;2.43;;;1.60;;
527;SDS011;250;47.712;7.508;2022-08-24T16:34:50;2.23;;;1.37;;
527;SDS011;250;47.712;7.508;2022-08-24T16:37:18;2.63;;;1.73;;
527;SDS011;250;47.712;7.508;2022-08-24T16:39:47;2.27;;;1.70;;
527;SDS011;250;47.712;7.508;2022-08-24T16:42:17;2.50;;;1.60;;
527;SDS011;250;47.712;7.508;2022-08-24T16:44:47;1.97;;;1.30;;
527;SDS011;250;47.712;7.508;2022-08-24T16:47:15;2.00;;;1.27;;
527;SDS011;250;47.712;7.508;2022-08-24T16:49:42;2.07;;;1.30;;
527;SDS011;250;47.712;7.508;2022-08-24T16:52:09;2.90;;;1.00;;
527;SDS011;250;47.712;7.508;2022-08-24T16:54:36;2.67;;;1.00;;
527;SDS011;250;47.712;7.508;2022-08-24T16:57:05;2.30;;;1.47;;
527;SDS011;250;47.712;7.508;2022-08-24T16:59:39;1.80;;;1.00;;
527;SDS011;250;47.712;7.508;2022-08-24T17:02:07;4.80;;;1.10;;
527;SDS011;250;47.712;7.508;2022-08-24T17:04:35;2.60;;;1.20;;